createdAt,value
2023-05-17T00:00:58.266Z,23.34
2023-05-17T00:01:58.250Z,23.36
2023-05-17T00:02:58.274Z,23.35
2023-05-17T00:03:58.256Z,23.38
2023-05-17T00:04:58.338Z,23.38
2023-05-17T00:05:58.327Z,23.38
2023-05-17T00:06:58.277Z,23.38
2023-05-17T00:07:58.269Z,23.38
2023-05-17T00:08:58.281Z,23.39
2023-05-17T00:09:58.298Z,23.39
2023-05-17T00:10:58.300Z,23.39
2023-05-17T00:11:58.450Z,23.39
2023-05-17T00:12:58.301Z,23.39
2023-05-17T00:13:58.345Z,23.39
2023-05-17T00:14:58.358Z,23.39
2023-05-17T00:15:58.336Z,23.39
2023-05-17T00:16:58.491Z,23.39
2023-05-17T00:17:58.420Z,23.38
2023-05-17T00:18:58.479Z,23.39
2023-05-17T00:19:58.372Z,23.39
2023-05-17T00:20:58.379Z,23.39
2023-05-17T00:21:58.393Z,23.39
2023-05-17T00:22:58.413Z,23.39
2023-05-17T00:23:58.422Z,23.39
2023-05-17T00:24:58.431Z,23.38
2023-05-17T00:25:58.449Z,23.39
2023-05-17T00:26:58.455Z,23.39
2023-05-17T00:27:58.584Z,23.39
2023-05-17T00:28:58.487Z,23.39
2023-05-17T00:29:58.526Z,23.40
2023-05-17T00:30:58.519Z,23.39
2023-05-17T00:31:58.542Z,23.39
2023-05-17T00:32:58.575Z,23.39
2023-05-17T00:33:58.568Z,23.39
2023-05-17T00:34:58.601Z,23.39
2023-05-17T00:35:58.570Z,23.39
2023-05-17T00:36:58.584Z,23.39
2023-05-17T00:37:58.603Z,23.39
2023-05-17T00:38:58.604Z,23.38
2023-05-17T00:39:58.614Z,23.39
2023-05-17T00:40:58.636Z,23.39
2023-05-17T00:41:58.638Z,23.38
2023-05-17T00:42:58.648Z,23.38
2023-05-17T00:43:58.752Z,23.38
2023-05-17T00:44:58.699Z,23.38
2023-05-17T00:45:58.687Z,23.38
2023-05-17T00:46:58.711Z,23.38
2023-05-17T00:47:58.769Z,23.38
2023-05-17T00:48:58.722Z,23.39
2023-05-17T00:49:58.741Z,23.38
2023-05-17T00:50:58.742Z,23.38
2023-05-17T00:51:58.752Z,23.39
2023-05-17T00:52:58.769Z,23.38
2023-05-17T00:53:58.778Z,23.38
2023-05-17T00:54:58.792Z,23.38
2023-05-17T00:55:58.803Z,23.38
2023-05-17T00:56:58.833Z,23.38
2023-05-17T00:57:58.839Z,23.38
2023-05-17T00:58:58.844Z,23.38
2023-05-17T00:59:59.023Z,23.39
2023-05-17T01:00:58.874Z,23.38
2023-05-17T01:01:58.883Z,23.39
2023-05-17T01:02:58.977Z,23.38
2023-05-17T01:03:59.017Z,23.37
2023-05-17T01:04:59.160Z,23.38
2023-05-17T01:05:58.933Z,23.38
2023-05-17T01:06:58.950Z,23.38
2023-05-17T01:07:58.966Z,23.38
2023-05-17T01:08:58.978Z,23.38
2023-05-17T01:09:58.992Z,23.38
2023-05-17T01:10:59.003Z,23.38
2023-05-17T01:11:59.018Z,23.38
2023-05-17T01:12:59.034Z,23.38
2023-05-17T01:13:59.044Z,23.38
2023-05-17T01:14:59.049Z,23.37
2023-05-17T01:15:59.170Z,23.38
2023-05-17T01:16:59.078Z,23.38
2023-05-17T01:17:59.122Z,23.38
2023-05-17T01:18:59.269Z,23.38
2023-05-17T01:19:59.289Z,23.38
2023-05-17T01:20:59.118Z,23.38
2023-05-17T01:21:59.140Z,23.38
2023-05-17T01:22:59.150Z,23.38
2023-05-17T01:23:59.168Z,23.38
2023-05-17T01:24:59.187Z,23.37
2023-05-17T01:25:59.196Z,23.38
2023-05-17T01:26:59.218Z,23.38
2023-05-17T01:27:59.221Z,23.38
2023-05-17T01:28:59.241Z,23.38
2023-05-17T01:29:59.250Z,23.37
2023-05-17T01:30:59.259Z,23.37
2023-05-17T01:31:59.460Z,23.38
2023-05-17T01:32:59.448Z,23.37
2023-05-17T01:33:59.350Z,23.38
2023-05-17T01:34:59.299Z,23.37
2023-05-17T01:35:59.315Z,23.38
2023-05-17T01:36:59.331Z,23.38
2023-05-17T01:37:59.348Z,23.37
2023-05-17T01:38:59.354Z,23.37
2023-05-17T01:39:59.363Z,23.37
2023-05-17T01:40:59.376Z,23.38
2023-05-17T01:41:59.397Z,23.37
2023-05-17T01:42:59.407Z,23.37
2023-05-17T01:43:59.493Z,23.38
2023-05-17T01:44:59.437Z,23.38
2023-05-17T01:45:59.448Z,23.38
2023-05-17T01:46:59.455Z,23.37
2023-05-17T01:47:59.635Z,23.37
2023-05-17T01:48:59.549Z,23.37
2023-05-17T01:49:59.497Z,23.38
2023-05-17T01:50:59.503Z,23.38
2023-05-17T01:51:59.521Z,23.38
2023-05-17T01:52:59.532Z,23.39
2023-05-17T01:53:59.551Z,23.38
2023-05-17T01:54:59.571Z,23.39
2023-05-17T01:55:59.580Z,23.39
2023-05-17T01:56:59.602Z,23.39
2023-05-17T01:57:59.602Z,23.39
2023-05-17T01:58:59.630Z,23.38
2023-05-17T01:59:59.635Z,23.38
2023-05-17T02:00:59.652Z,23.39
2023-05-17T02:01:59.686Z,23.38
2023-05-17T02:02:59.699Z,23.38
2023-05-17T02:03:59.823Z,23.38
2023-05-17T02:04:59.788Z,23.38
2023-05-17T02:05:59.722Z,23.38
2023-05-17T02:06:59.738Z,23.38
2023-05-17T02:07:59.758Z,23.38
2023-05-17T02:08:59.767Z,23.39
2023-05-17T02:09:59.774Z,23.40
2023-05-17T02:10:59.794Z,23.39
2023-05-17T02:11:59.800Z,23.39
2023-05-17T02:12:59.811Z,23.39
2023-05-17T02:13:59.837Z,23.40
2023-05-17T02:14:59.837Z,23.39
2023-05-17T02:15:59.853Z,23.39
2023-05-17T02:16:59.866Z,23.39
2023-05-17T02:17:59.972Z,23.39
2023-05-17T02:19:00.030Z,23.39
2023-05-17T02:20:00.198Z,23.39
2023-05-17T02:20:59.960Z,23.39
2023-05-17T02:21:59.929Z,23.40
2023-05-17T02:22:59.945Z,23.40
2023-05-17T02:23:59.954Z,23.40
2023-05-17T02:24:59.964Z,23.39
2023-05-17T02:25:59.975Z,23.40
2023-05-17T02:26:59.996Z,23.39
2023-05-17T02:28:00.006Z,23.39
2023-05-17T02:29:00.032Z,23.39
2023-05-17T02:30:00.043Z,23.39
2023-05-17T02:31:00.049Z,23.38
2023-05-17T02:32:00.066Z,23.39
2023-05-17T02:33:00.132Z,23.39
2023-05-17T02:34:00.354Z,23.39
2023-05-17T02:35:00.128Z,23.39
2023-05-17T02:36:00.279Z,23.39
2023-05-17T02:37:00.140Z,23.39
2023-05-17T02:38:00.152Z,23.38
2023-05-17T02:39:00.177Z,23.39
2023-05-17T02:40:00.175Z,23.39
2023-05-17T02:41:00.193Z,23.38
2023-05-17T02:42:00.215Z,23.39
2023-05-17T02:43:00.224Z,23.38
2023-05-17T02:44:00.230Z,23.39
2023-05-17T02:45:00.248Z,23.38
2023-05-17T02:46:00.256Z,23.38
2023-05-17T02:47:00.304Z,23.39
2023-05-17T02:48:00.321Z,23.38
2023-05-17T02:49:00.291Z,23.38
2023-05-17T02:50:00.313Z,23.38
2023-05-17T02:51:00.319Z,23.38
2023-05-17T02:52:00.434Z,23.39
2023-05-17T02:53:00.351Z,23.38
2023-05-17T02:54:00.349Z,23.38
2023-05-17T02:55:00.352Z,23.38
2023-05-17T02:56:00.401Z,23.38
2023-05-17T02:57:00.390Z,23.38
2023-05-17T02:58:00.417Z,23.38
2023-05-17T02:59:00.412Z,23.38
2023-05-17T03:00:00.428Z,23.38
2023-05-17T03:01:00.440Z,23.38
2023-05-17T03:02:00.453Z,23.38
2023-05-17T03:03:00.529Z,23.38
2023-05-17T03:04:00.689Z,23.38
2023-05-17T03:05:00.526Z,23.38
2023-05-17T03:06:00.494Z,23.38
2023-05-17T03:07:00.509Z,23.38
2023-05-17T03:08:00.651Z,23.37
2023-05-17T03:09:00.530Z,23.38
2023-05-17T03:10:00.540Z,23.37
2023-05-17T03:11:00.558Z,23.38
2023-05-17T03:12:00.583Z,23.38
2023-05-17T03:13:00.591Z,23.38
2023-05-17T03:14:00.594Z,23.38
2023-05-17T03:15:00.630Z,23.38
2023-05-17T03:16:00.622Z,23.38
2023-05-17T03:17:00.641Z,23.38
2023-05-17T03:18:00.837Z,23.38
2023-05-17T03:19:00.758Z,23.38
2023-05-17T03:20:00.659Z,23.39
2023-05-17T03:21:00.682Z,23.39
2023-05-17T03:22:00.686Z,23.39
2023-05-17T03:23:01.084Z,23.38
2023-05-17T03:24:01.121Z,23.38
2023-05-17T03:25:01.091Z,23.39
2023-05-17T03:26:01.086Z,23.39
2023-05-17T03:27:01.078Z,23.38
2023-05-17T03:28:01.079Z,23.37
2023-05-17T03:29:01.080Z,23.38
2023-05-17T03:30:01.070Z,23.38
2023-05-17T03:31:01.113Z,23.37
2023-05-17T03:32:01.051Z,23.37
2023-05-17T03:33:01.105Z,23.38
2023-05-17T03:34:01.128Z,23.38
2023-05-17T03:35:01.043Z,23.38
2023-05-17T03:36:01.045Z,23.37
2023-05-17T03:37:01.041Z,23.37
2023-05-17T03:38:01.051Z,23.37
2023-05-17T03:39:01.042Z,23.37
2023-05-17T03:40:01.212Z,23.38
2023-05-17T03:41:01.008Z,23.38
2023-05-17T03:42:01.058Z,23.38
2023-05-17T03:43:01.002Z,23.38
2023-05-17T03:44:01.001Z,23.37
2023-05-17T03:45:01.016Z,23.37
2023-05-17T03:46:00.997Z,23.37
2023-05-17T03:47:00.995Z,23.38
2023-05-17T03:48:01.010Z,23.37
2023-05-17T03:49:01.001Z,23.37
2023-05-17T03:50:00.984Z,23.37
2023-05-17T03:51:01.006Z,23.37
2023-05-17T03:52:01.015Z,23.37
2023-05-17T03:53:01.019Z,23.37
2023-05-17T03:54:01.137Z,23.37
2023-05-17T03:55:01.049Z,23.37
2023-05-17T03:56:01.181Z,23.37
2023-05-17T03:57:01.070Z,23.37
2023-05-17T03:58:01.093Z,23.37
2023-05-17T03:59:01.090Z,23.37
2023-05-17T04:00:01.107Z,23.37
2023-05-17T04:01:01.129Z,23.38
2023-05-17T04:02:01.116Z,23.38
2023-05-17T04:03:01.170Z,23.38
2023-05-17T04:04:01.289Z,23.38
2023-05-17T04:05:01.186Z,23.38
2023-05-17T04:06:01.174Z,23.37
2023-05-17T04:07:01.182Z,23.38
2023-05-17T04:08:01.188Z,23.37
2023-05-17T04:09:01.209Z,23.38
2023-05-17T04:10:01.212Z,23.38
2023-05-17T04:11:01.225Z,23.38
2023-05-17T04:12:01.420Z,23.39
2023-05-17T04:13:01.256Z,23.39
2023-05-17T04:14:01.265Z,23.38
2023-05-17T04:15:01.269Z,23.38
2023-05-17T04:16:01.285Z,23.38
2023-05-17T04:17:01.296Z,23.38
2023-05-17T04:18:01.368Z,23.38
2023-05-17T04:19:01.552Z,23.38
2023-05-17T04:20:01.326Z,23.38
2023-05-17T04:21:01.328Z,23.37
2023-05-17T04:22:01.344Z,23.37
2023-05-17T04:23:01.723Z,23.38
2023-05-17T04:24:01.756Z,23.38
2023-05-17T04:25:01.754Z,23.38
2023-05-17T04:26:01.766Z,23.38
2023-05-17T04:27:03.385Z,23.38
2023-05-17T04:28:01.978Z,23.37
2023-05-17T04:29:01.776Z,23.37
2023-05-17T04:30:01.795Z,23.36
2023-05-17T04:31:01.759Z,23.37
2023-05-17T04:32:01.761Z,23.37
2023-05-17T04:33:01.802Z,23.37
2023-05-17T04:34:01.759Z,23.38
2023-05-17T04:35:01.340Z,23.38
2023-05-17T04:36:01.378Z,23.37
2023-05-17T04:37:01.332Z,23.37
2023-05-17T04:38:01.322Z,23.38
2023-05-17T04:39:01.326Z,23.37
2023-05-17T04:40:01.328Z,23.38
2023-05-17T04:41:01.285Z,23.38
2023-05-17T04:42:01.293Z,23.38
2023-05-17T04:43:01.279Z,23.37
2023-05-17T04:44:01.380Z,23.38
2023-05-17T04:45:01.301Z,23.38
2023-05-17T04:46:01.258Z,23.37
2023-05-17T04:47:01.244Z,23.38
2023-05-17T04:48:01.279Z,23.38
2023-05-17T04:49:01.316Z,23.38
2023-05-17T04:50:01.239Z,23.38
2023-05-17T04:51:01.223Z,23.38
2023-05-17T04:52:02.496Z,23.38
2023-05-17T04:53:01.212Z,23.37
2023-05-17T04:54:01.225Z,23.38
2023-05-17T04:55:01.192Z,23.38
2023-05-17T04:56:01.182Z,23.37
2023-05-17T04:57:01.189Z,23.39
2023-05-17T04:58:01.195Z,23.38
2023-05-17T04:59:01.168Z,23.38
2023-05-17T05:00:01.317Z,23.38
2023-05-17T05:01:01.153Z,23.38
2023-05-17T05:02:01.145Z,23.38
2023-05-17T05:03:01.245Z,23.38
2023-05-17T05:04:01.202Z,23.38
2023-05-17T05:05:01.224Z,23.37
2023-05-17T05:06:01.109Z,23.37
2023-05-17T05:07:01.110Z,23.37
2023-05-17T05:08:01.101Z,23.38
2023-05-17T05:09:01.090Z,23.38
2023-05-17T05:10:01.078Z,23.38
2023-05-17T05:11:01.076Z,23.38
2023-05-17T05:12:01.064Z,23.38
2023-05-17T05:13:01.354Z,23.38
2023-05-17T05:14:01.042Z,23.38
2023-05-17T05:15:01.414Z,23.38
2023-05-17T05:16:01.139Z,23.38
2023-05-17T05:17:01.042Z,23.37
2023-05-17T05:18:01.410Z,23.38
2023-05-17T05:19:01.147Z,23.38
2023-05-17T05:20:01.084Z,23.37
2023-05-17T05:21:00.998Z,23.38
2023-05-17T05:22:00.991Z,23.38
2023-05-17T05:23:01.348Z,23.37
2023-05-17T05:24:00.967Z,23.38
2023-05-17T05:25:01.365Z,23.37
2023-05-17T05:26:00.970Z,23.38
2023-05-17T05:27:00.961Z,23.37
2023-05-17T05:28:00.950Z,23.37
2023-05-17T05:29:00.940Z,23.37
2023-05-17T05:30:00.927Z,23.38
2023-05-17T05:31:00.937Z,23.38
2023-05-17T05:32:01.014Z,23.37
2023-05-17T05:33:01.448Z,23.37
2023-05-17T05:34:01.005Z,23.38
2023-05-17T05:35:00.938Z,23.37
2023-05-17T05:36:00.964Z,23.38
2023-05-17T05:37:00.888Z,23.37
2023-05-17T05:38:00.959Z,23.38
2023-05-17T05:39:00.883Z,23.38
2023-05-17T05:40:00.861Z,23.38
2023-05-17T05:41:00.852Z,23.38
2023-05-17T05:42:00.848Z,23.38
2023-05-17T05:43:00.864Z,23.38
2023-05-17T05:44:00.826Z,23.38
2023-05-17T05:45:00.825Z,23.38
2023-05-17T05:46:00.814Z,23.38
2023-05-17T05:47:01.914Z,23.39
2023-05-17T05:48:01.148Z,23.37
2023-05-17T05:49:00.890Z,23.38
2023-05-17T05:50:00.829Z,23.39
2023-05-17T05:51:03.985Z,23.39
2023-05-17T05:52:00.811Z,23.38
2023-05-17T05:53:10.792Z,23.37
2023-05-17T05:54:00.810Z,23.37
2023-05-17T05:55:01.861Z,23.37
2023-05-17T05:57:08.193Z,23.37
2023-05-17T05:58:00.820Z,23.37
2023-05-17T05:59:00.870Z,23.37
2023-05-17T06:00:00.801Z,23.38
2023-05-17T06:01:00.797Z,23.39
2023-05-17T06:02:00.808Z,23.39
2023-05-17T06:03:00.896Z,23.38
2023-05-17T06:04:00.997Z,23.39
2023-05-17T06:05:01.808Z,23.39
2023-05-17T06:06:00.936Z,23.39
2023-05-17T06:07:00.922Z,23.40
2023-05-17T06:08:00.883Z,23.41
2023-05-17T06:09:00.811Z,23.42
2023-05-17T06:10:00.810Z,23.42
2023-05-17T06:11:00.807Z,23.42
2023-05-17T06:12:00.825Z,23.43
2023-05-17T06:13:00.904Z,23.43
2023-05-17T06:14:00.806Z,23.43
2023-05-17T06:15:00.805Z,23.44
2023-05-17T06:16:00.816Z,23.44
2023-05-17T06:17:00.894Z,23.45
2023-05-17T06:18:00.989Z,23.45
2023-05-17T06:19:00.964Z,23.45
2023-05-17T06:20:01.073Z,23.46
2023-05-17T06:21:00.820Z,23.46
2023-05-17T06:22:00.835Z,23.46
2023-05-17T06:23:00.888Z,23.48
2023-05-17T06:24:02.776Z,23.48
2023-05-17T06:25:00.830Z,23.47
2023-05-17T06:26:00.826Z,23.48
2023-05-17T06:27:00.830Z,23.49
2023-05-17T06:28:00.829Z,23.49
2023-05-17T06:29:00.823Z,23.49
2023-05-17T06:30:01.640Z,23.50
2023-05-17T06:31:00.880Z,23.51
2023-05-17T06:32:00.855Z,23.51
2023-05-17T06:33:01.020Z,23.52
2023-05-17T06:34:00.877Z,23.52
2023-05-17T06:35:00.829Z,23.52
2023-05-17T06:36:59.819Z,23.52
2023-05-17T06:38:00.885Z,23.53
2023-05-17T06:39:00.432Z,23.54
2023-05-17T06:40:16.204Z,23.54
2023-05-17T06:41:00.401Z,23.54
2023-05-17T06:42:00.405Z,23.55
2023-05-17T06:43:01.195Z,23.55
2023-05-17T06:44:01.379Z,23.55
2023-05-17T06:45:01.384Z,23.56
2023-05-17T06:46:00.382Z,23.57
2023-05-17T06:47:00.372Z,23.57
2023-05-17T06:48:00.446Z,23.57
2023-05-17T06:49:00.627Z,23.58
2023-05-17T06:50:01.327Z,23.58
2023-05-17T06:51:07.796Z,23.58
2023-05-17T06:52:07.743Z,23.58
2023-05-17T06:53:07.720Z,23.57
2023-05-17T06:54:03.629Z,23.57
2023-05-17T06:55:00.296Z,23.58
2023-05-17T06:57:15.892Z,23.58
2023-05-17T06:58:03.516Z,23.58
2023-05-17T06:59:00.280Z,23.59
2023-05-17T07:00:01.369Z,23.61
2023-05-17T07:01:07.731Z,23.61
2023-05-17T07:02:03.459Z,23.61
2023-05-17T07:04:00.445Z,23.62
2023-05-17T07:05:16.243Z,23.62
2023-05-17T07:07:00.586Z,23.62
2023-05-17T07:08:00.459Z,23.64
2023-05-17T07:09:07.584Z,23.65
2023-05-17T07:10:00.184Z,23.64
2023-05-17T07:11:00.212Z,23.65
2023-05-17T07:12:00.174Z,23.66
2023-05-17T07:13:00.616Z,23.67
2023-05-17T07:14:00.175Z,23.67
2023-05-17T07:15:07.552Z,23.68
2023-05-17T07:16:00.155Z,23.67
2023-05-17T07:17:00.156Z,23.68
2023-05-17T07:18:00.474Z,23.68
2023-05-17T07:19:00.499Z,23.69
2023-05-17T07:20:00.298Z,23.70
2023-05-17T07:21:01.125Z,23.71
2023-05-17T07:22:00.166Z,23.71
2023-05-17T07:23:00.236Z,23.71
2023-05-17T07:24:00.431Z,23.71
2023-05-17T07:25:00.089Z,23.73
2023-05-17T07:26:00.070Z,23.73
2023-05-17T07:27:00.061Z,23.73
2023-05-17T07:28:00.146Z,23.74
2023-05-17T07:29:00.048Z,23.75
2023-05-17T07:30:00.439Z,23.74
2023-05-17T07:31:00.074Z,23.75
2023-05-17T07:32:00.029Z,23.75
2023-05-17T07:33:00.472Z,23.76
2023-05-17T07:34:00.065Z,23.76
2023-05-17T07:35:00.025Z,23.76
2023-05-17T07:36:03.661Z,23.76
2023-05-17T07:37:00.001Z,23.76
2023-05-17T07:38:00.919Z,23.77
2023-05-17T07:39:00.103Z,23.77
2023-05-17T07:40:00.442Z,23.77
2023-05-17T07:41:00.965Z,23.77
2023-05-17T07:41:59.978Z,23.77
2023-05-17T07:43:00.421Z,23.77
2023-05-17T07:43:59.993Z,23.78
2023-05-17T07:44:59.967Z,23.78
2023-05-17T07:46:07.371Z,23.80
2023-05-17T07:46:59.997Z,23.82
2023-05-17T07:48:00.504Z,23.84
2023-05-17T07:49:00.007Z,23.86
2023-05-17T07:50:01.515Z,23.88
2023-05-17T07:51:00.123Z,23.89
2023-05-17T07:52:00.190Z,23.89
2023-05-17T07:53:00.432Z,23.91
2023-05-17T07:54:03.676Z,23.93
2023-05-17T07:55:03.468Z,23.93
2023-05-17T07:56:03.439Z,23.95
2023-05-17T07:57:00.284Z,23.94
2023-05-17T07:58:00.412Z,23.96
2023-05-17T07:59:07.632Z,23.97
2023-05-17T08:00:07.678Z,23.98
2023-05-17T08:01:07.629Z,23.98
2023-05-17T08:02:07.795Z,23.98
2023-05-17T08:03:00.453Z,23.99
2023-05-17T08:04:03.405Z,24.01
2023-05-17T08:05:00.314Z,24.02
2023-05-17T08:06:00.264Z,24.03
2023-05-17T08:07:00.182Z,24.04
2023-05-17T08:08:00.414Z,24.05
2023-05-17T08:09:00.155Z,24.07
2023-05-17T08:10:00.339Z,23.91
2023-05-17T08:11:00.157Z,23.71
2023-05-17T08:12:00.144Z,23.50
2023-05-17T08:13:00.449Z,23.30
2023-05-17T08:14:00.130Z,23.08
2023-05-17T08:15:00.129Z,22.89
2023-05-17T08:16:08.896Z,22.63
2023-05-17T08:17:00.104Z,22.44
2023-05-17T08:18:03.666Z,22.29
2023-05-17T08:19:00.471Z,22.15
2023-05-17T08:20:00.342Z,22.04
2023-05-17T08:21:00.323Z,21.91
2023-05-17T08:22:00.336Z,21.83
2023-05-17T08:23:03.646Z,21.79
2023-05-17T08:24:01.578Z,21.76
2023-05-17T08:25:00.610Z,21.69
2023-05-17T08:26:00.340Z,21.62
2023-05-17T08:27:00.318Z,21.60
2023-05-17T08:28:04.150Z,21.59
2023-05-17T08:29:00.290Z,21.58
2023-05-17T08:30:01.312Z,21.57
2023-05-17T08:31:01.280Z,21.57
2023-05-17T08:32:00.271Z,21.56
2023-05-17T08:33:00.628Z,21.56
2023-05-17T08:34:00.471Z,21.55
2023-05-17T08:35:00.247Z,21.55
2023-05-17T08:36:00.245Z,21.52
2023-05-17T08:37:07.860Z,21.48
2023-05-17T08:38:00.252Z,21.43
2023-05-17T08:39:00.234Z,21.41
2023-05-17T08:40:00.275Z,21.38
2023-05-17T08:41:00.206Z,21.37
2023-05-17T08:42:00.548Z,21.36
2023-05-17T08:43:00.430Z,21.34
2023-05-17T08:44:00.441Z,21.32
2023-05-17T08:45:00.183Z,21.31
2023-05-17T08:46:00.502Z,21.28
2023-05-17T08:47:00.172Z,21.25
2023-05-17T08:48:00.542Z,21.24
2023-05-17T08:49:00.416Z,21.25
2023-05-17T08:50:01.207Z,21.27
2023-05-17T08:51:00.473Z,21.30
2023-05-17T08:52:00.424Z,21.32
2023-05-17T08:53:00.179Z,21.34
2023-05-17T08:54:00.103Z,21.35
2023-05-17T08:55:00.442Z,21.37
2023-05-17T08:56:00.095Z,21.37
2023-05-17T08:57:00.426Z,21.35
2023-05-17T08:58:00.165Z,21.35
2023-05-17T08:59:00.068Z,21.34
2023-05-17T09:00:00.069Z,21.33
2023-05-17T09:01:00.062Z,21.33
2023-05-17T09:02:00.437Z,21.32
2023-05-17T09:03:00.514Z,21.32
2023-05-17T09:04:00.030Z,21.33
2023-05-17T09:05:00.140Z,21.31
2023-05-17T09:06:00.111Z,21.31
2023-05-17T09:07:00.435Z,21.29
2023-05-17T09:07:59.996Z,21.28
2023-05-17T09:08:59.997Z,21.27
2023-05-17T09:09:59.984Z,21.25
2023-05-17T09:11:03.176Z,21.21
2023-05-17T09:11:59.967Z,21.20
2023-05-17T09:13:00.435Z,21.20
2023-05-17T09:14:00.383Z,21.20
2023-05-17T09:14:59.961Z,21.23
2023-05-17T09:15:59.937Z,21.25
2023-05-17T09:16:59.938Z,21.27
2023-05-17T09:18:00.120Z,21.28
2023-05-17T09:19:00.036Z,21.30
2023-05-17T09:20:00.116Z,21.34
2023-05-17T09:20:59.907Z,21.35
2023-05-17T09:21:59.913Z,21.35
2023-05-17T09:22:59.934Z,21.33
2023-05-17T09:24:06.234Z,21.34
2023-05-17T09:24:59.921Z,21.33
2023-05-17T09:26:03.179Z,21.34
2023-05-17T09:26:59.898Z,21.32
2023-05-17T09:28:00.960Z,21.32
2023-05-17T09:28:59.951Z,21.32
2023-05-17T09:30:00.014Z,21.32
2023-05-17T09:30:59.901Z,21.31
2023-05-17T09:32:03.040Z,21.33
2023-05-17T09:33:00.846Z,21.33
2023-05-17T09:33:59.925Z,21.33
2023-05-17T09:34:59.942Z,21.31
2023-05-17T09:35:59.957Z,21.30
2023-05-17T09:36:59.872Z,21.31
2023-05-17T09:38:00.958Z,21.34
2023-05-17T09:38:59.807Z,21.46
2023-05-17T09:39:59.777Z,21.57
2023-05-17T09:40:59.764Z,21.67
2023-05-17T09:41:59.763Z,21.76
2023-05-17T09:42:59.965Z,21.87
2023-05-17T09:43:59.763Z,21.96
2023-05-17T09:44:59.756Z,22.06
2023-05-17T09:45:59.794Z,22.15
2023-05-17T09:46:59.738Z,22.23
2023-05-17T09:48:00.989Z,22.30
2023-05-17T09:48:59.945Z,22.37
2023-05-17T09:49:59.946Z,22.43
2023-05-17T09:50:59.866Z,22.49
2023-05-17T09:51:59.877Z,22.55
2023-05-17T09:52:59.870Z,22.60
2023-05-17T09:53:59.949Z,22.65
2023-05-17T09:54:59.884Z,22.69
2023-05-17T09:55:59.943Z,22.74
2023-05-17T09:56:59.947Z,22.78
2023-05-17T09:58:00.483Z,22.82
2023-05-17T09:59:00.002Z,22.85
2023-05-17T10:00:00.040Z,22.88
2023-05-17T10:01:00.124Z,22.91
2023-05-17T10:02:00.200Z,22.94
2023-05-17T10:03:00.555Z,22.96
2023-05-17T10:04:00.292Z,22.99
2023-05-17T10:05:00.512Z,23.01
2023-05-17T10:06:00.376Z,23.04
2023-05-17T10:07:07.833Z,23.06
2023-05-17T10:08:03.646Z,23.08
2023-05-17T10:09:01.077Z,23.12
2023-05-17T10:10:00.397Z,23.16
2023-05-17T10:11:00.401Z,23.18
2023-05-17T10:12:00.391Z,23.22
2023-05-17T10:13:00.385Z,23.25
2023-05-17T10:14:00.378Z,23.27
2023-05-17T10:15:00.583Z,23.30
2023-05-17T10:16:00.372Z,23.33
2023-05-17T10:17:00.371Z,23.36
2023-05-17T10:18:00.511Z,23.38
2023-05-17T10:19:00.437Z,23.41
2023-05-17T10:20:00.604Z,23.44
2023-05-17T10:21:00.367Z,23.47
2023-05-17T10:22:11.618Z,23.48
2023-05-17T10:23:00.716Z,23.50
2023-05-17T10:24:07.699Z,23.54
2023-05-17T10:25:00.469Z,23.56
2023-05-17T10:26:00.286Z,23.58
2023-05-17T10:27:03.501Z,23.61
2023-05-17T10:28:00.282Z,23.61
2023-05-17T10:29:00.282Z,23.63
2023-05-17T10:30:00.474Z,23.65
2023-05-17T10:31:00.256Z,23.66
2023-05-17T10:32:00.680Z,23.68
2023-05-17T10:33:00.401Z,23.70
2023-05-17T10:34:00.728Z,23.71
2023-05-17T10:35:10.377Z,23.73
2023-05-17T10:36:00.229Z,23.73
2023-05-17T10:37:00.230Z,23.73
2023-05-17T10:38:01.220Z,23.72
2023-05-17T10:39:00.507Z,23.72
2023-05-17T10:40:00.233Z,23.74
2023-05-17T10:41:01.087Z,23.75
2023-05-17T10:42:13.451Z,23.76
2023-05-17T10:43:00.214Z,23.77
2023-05-17T10:44:00.474Z,23.80
2023-05-17T10:45:00.209Z,23.82
2023-05-17T10:46:00.214Z,23.83
2023-05-17T10:47:00.143Z,23.85
2023-05-17T10:48:01.275Z,23.87
2023-05-17T10:49:00.225Z,23.88
2023-05-17T10:50:00.166Z,23.90
2023-05-17T10:51:02.133Z,23.91
2023-05-17T10:52:00.130Z,23.93
2023-05-17T10:53:00.135Z,23.94
2023-05-17T10:54:00.475Z,23.94
2023-05-17T10:55:00.126Z,23.97
2023-05-17T10:56:00.129Z,23.98
2023-05-17T10:57:00.974Z,23.99
2023-05-17T10:58:00.115Z,24.00
2023-05-17T10:59:00.072Z,24.02
2023-05-17T11:00:00.052Z,24.02
2023-05-17T11:01:00.085Z,24.03
2023-05-17T11:02:00.482Z,24.05
2023-05-17T11:03:00.248Z,24.06
2023-05-17T11:04:00.483Z,24.07
2023-05-17T11:05:00.623Z,24.08
2023-05-17T11:06:00.771Z,24.08
2023-05-17T11:07:01.758Z,24.10
2023-05-17T11:08:00.407Z,24.12
2023-05-17T11:09:00.477Z,24.14
2023-05-17T11:10:00.459Z,24.16
2023-05-17T11:11:00.393Z,24.19
2023-05-17T11:12:00.401Z,24.21
2023-05-17T11:13:00.476Z,24.22
2023-05-17T11:14:00.392Z,24.24
2023-05-17T11:15:00.386Z,24.26
2023-05-17T11:16:00.360Z,24.28
2023-05-17T11:17:00.355Z,24.30
2023-05-17T11:18:00.440Z,24.32
2023-05-17T11:19:00.569Z,24.34
2023-05-17T11:20:00.532Z,24.34
2023-05-17T11:21:00.516Z,24.35
2023-05-17T11:22:00.361Z,24.37
2023-05-17T11:23:00.311Z,24.38
2023-05-17T11:24:00.301Z,24.40
2023-05-17T11:25:00.297Z,24.42
2023-05-17T11:26:05.826Z,24.43
2023-05-17T11:27:00.294Z,24.44
2023-05-17T11:28:00.360Z,24.45
2023-05-17T11:29:00.287Z,24.47
2023-05-17T11:30:00.297Z,24.48
2023-05-17T11:31:00.255Z,24.50
2023-05-17T11:32:00.256Z,24.51
2023-05-17T11:33:00.351Z,24.53
2023-05-17T11:34:00.290Z,24.54
2023-05-17T11:35:00.234Z,24.55
2023-05-17T11:36:00.221Z,24.56
2023-05-17T11:37:00.230Z,24.58
2023-05-17T11:38:00.242Z,24.58
2023-05-17T11:39:08.055Z,24.60
2023-05-17T11:40:00.249Z,24.61
2023-05-17T11:41:00.249Z,24.62
2023-05-17T11:42:00.182Z,24.58
2023-05-17T11:43:00.719Z,24.48
2023-05-17T11:44:00.502Z,24.40
2023-05-17T11:45:00.201Z,24.38
2023-05-17T11:46:00.158Z,24.39
2023-05-17T11:47:00.194Z,24.41
2023-05-17T11:48:00.340Z,24.43
2023-05-17T11:49:00.153Z,24.46
2023-05-17T11:50:00.169Z,24.50
2023-05-17T11:51:02.178Z,24.53
2023-05-17T11:52:00.123Z,24.55
2023-05-17T11:53:00.125Z,24.58
2023-05-17T11:54:00.145Z,24.61
2023-05-17T11:55:00.085Z,24.61
2023-05-17T11:56:00.088Z,24.51
2023-05-17T11:57:00.089Z,24.38
2023-05-17T11:58:00.068Z,24.24
2023-05-17T11:59:00.132Z,24.15
2023-05-17T12:00:00.994Z,24.12
2023-05-17T12:01:00.035Z,24.09
2023-05-17T12:02:00.038Z,24.06
2023-05-17T12:03:00.084Z,24.07
2023-05-17T12:04:00.229Z,24.09
2023-05-17T12:05:00.326Z,24.11
2023-05-17T12:06:00.010Z,24.13
2023-05-17T12:07:00.001Z,24.16
2023-05-17T12:07:59.993Z,24.19
2023-05-17T12:09:00.002Z,24.22
2023-05-17T12:09:59.994Z,24.25
2023-05-17T12:10:59.973Z,24.27
2023-05-17T12:12:00.959Z,24.30
2023-05-17T12:12:59.956Z,24.31
2023-05-17T12:13:59.984Z,24.33
2023-05-17T12:15:00.038Z,24.34
2023-05-17T12:16:00.075Z,24.35
2023-05-17T12:17:00.511Z,24.36
2023-05-17T12:18:00.330Z,24.36
2023-05-17T12:19:00.401Z,24.38
2023-05-17T12:20:00.322Z,24.38
2023-05-17T12:21:00.280Z,24.39
2023-05-17T12:22:00.277Z,24.40
2023-05-17T12:23:00.312Z,24.40
2023-05-17T12:24:00.344Z,24.40
2023-05-17T12:25:00.419Z,24.41
2023-05-17T12:26:00.453Z,24.42
2023-05-17T12:27:00.430Z,24.42
2023-05-17T12:28:00.450Z,24.42
2023-05-17T12:29:00.502Z,24.43
2023-05-17T12:30:00.520Z,24.42
2023-05-17T12:31:00.545Z,24.42
2023-05-17T12:32:00.564Z,24.42
2023-05-17T12:33:00.751Z,24.44
2023-05-17T12:34:01.066Z,24.43
2023-05-17T12:35:00.641Z,24.43
2023-05-17T12:36:00.674Z,24.44
2023-05-17T12:37:00.688Z,24.44
2023-05-17T12:38:00.733Z,24.44
2023-05-17T12:39:00.760Z,24.44
2023-05-17T12:40:00.775Z,24.44
2023-05-17T12:41:00.816Z,24.45
2023-05-17T12:42:00.894Z,24.45
2023-05-17T12:43:01.455Z,24.45
2023-05-17T12:44:59.876Z,24.45
2023-05-17T12:46:02.387Z,24.45
2023-05-17T12:47:01.406Z,24.45
2023-05-17T12:48:01.401Z,24.45
2023-05-17T12:49:00.882Z,24.45
2023-05-17T12:50:00.828Z,24.45
2023-05-17T12:51:01.013Z,24.46
2023-05-17T12:52:00.820Z,24.46
2023-05-17T12:53:00.810Z,24.46
2023-05-17T12:54:01.824Z,24.46
2023-05-17T12:55:00.802Z,24.46
2023-05-17T12:56:00.797Z,24.47
2023-05-17T12:57:00.792Z,24.47
2023-05-17T12:58:00.798Z,24.47
2023-05-17T12:59:00.764Z,24.47